Time;durP1;ratioP1;P1;durP2;ratioP2;P2;SDS_P1;SDS_P2;PMS_P1;PMS_P2;Temp;Humidity;BMP_temperature;BMP_pressure;BME280_temperature;BME280_humidity;BME280_pressure;Samples;Min_cycle;Max_cycle;Signal;HPM_P1;HPM_P2
2023/09/22 00:00:46;;;;;;;2.33;1.70;;;16.20;99.90;;;;;;4989163;28;20489;-64
2023/09/22 00:03:13;;;;;;;1.80;1.20;;;16.20;99.90;;;;;;4989241;28;20493;-64
2023/09/22 00:05:41;;;;;;;2.27;1.33;;;16.30;99.90;;;;;;4987369;28;20489;-65
2023/09/22 00:08:08;;;;;;;8.80;2.13;;;16.30;99.90;;;;;;4988544;28;20478;-65
2023/09/22 00:10:35;;;;;;;2.10;1.63;;;16.20;99.90;;;;;;4990207;28;21468;-65
2023/09/22 00:13:02;;;;;;;2.50;1.90;;;16.20;99.90;;;;;;4988785;28;20845;-65
2023/09/22 00:15:29;;;;;;;2.93;1.87;;;16.10;99.90;;;;;;4987707;28;20753;-65
2023/09/22 00:17:55;;;;;;;2.80;2.10;;;16.20;99.90;;;;;;4990527;28;20481;-65
2023/09/22 00:20:22;;;;;;;13.93;2.73;;;16.10;99.90;;;;;;4990789;28;20474;-65
2023/09/22 00:22:52;;;;;;;2.37;2.00;;;16.20;99.90;;;;;;4987007;28;21062;-66
2023/09/22 00:25:22;;;;;;;2.40;1.37;;;16.00;99.90;;;;;;5004811;28;20567;-64
2023/09/22 00:27:48;;;;;;;16.23;2.80;;;16.10;99.90;;;;;;4988947;28;20484;-65
2023/09/22 00:30:15;;;;;;;4.93;1.50;;;;;;;;;;4990322;28;20485;-64
2023/09/22 00:32:42;;;;;;;4.13;1.37;;;16.20;99.90;;;;;;4995111;28;20485;-64
2023/09/22 00:35:10;;;;;;;9.73;1.63;;;16.10;99.90;;;;;;4991473;28;21012;-64
2023/09/22 00:37:37;;;;;;;2.30;1.40;;;16.20;99.90;;;;;;4988260;28;20855;-64
2023/09/22 00:40:08;;;;;;;2.83;0.90;;;16.20;99.90;;;;;;4986730;28;20488;-65
2023/09/22 00:42:35;;;;;;;3.50;1.30;;;16.20;99.90;;;;;;4989938;28;20953;-64
2023/09/22 00:45:02;;;;;;;2.40;1.30;;;16.20;99.90;;;;;;4988315;28;20480;-64
2023/09/22 00:47:29;;;;;;;2.00;1.03;;;16.20;99.90;;;;;;4989016;28;20601;-64
2023/09/22 00:49:56;;;;;;;2.97;1.43;;;16.20;99.90;;;;;;4989318;28;20473;-63
2023/09/22 00:52:25;;;;;;;2.57;0.93;;;16.20;99.90;;;;;;4988927;28;20488;-64
2023/09/22 00:54:52;;;;;;;13.17;2.20;;;16.10;99.90;;;;;;4987353;28;20843;-64
2023/09/22 00:57:21;;;;;;;3.57;1.27;;;16.10;99.90;;;;;;4988681;28;20489;-64
2023/09/22 00:59:48;;;;;;;3.03;1.20;;;16.10;99.90;;;;;;4988756;28;20497;-64
2023/09/22 01:02:15;;;;;;;5.73;1.13;;;16.10;99.90;;;;;;4986417;28;20607;-63
2023/09/22 01:04:42;;;;;;;5.00;1.20;;;16.10;99.90;;;;;;4987813;28;20567;-64
2023/09/22 01:07:09;;;;;;;5.43;1.27;;;16.00;99.90;;;;;;4987780;28;20481;-64
2023/09/22 01:09:37;;;;;;;4.00;1.10;;;16.00;99.90;;;;;;4995127;28;20838;-64
2023/09/22 01:12:05;;;;;;;7.20;1.20;;;15.90;99.90;;;;;;4994049;28;20512;-65
2023/09/22 01:14:33;;;;;;;1.90;1.10;;;15.90;99.90;;;;;;4992194;28;20556;-66
2023/09/22 01:17:00;;;;;;;3.40;1.03;;;15.80;99.90;;;;;;4995280;28;20504;-64
2023/09/22 01:19:26;;;;;;;2.00;1.07;;;15.80;99.90;;;;;;4990189;28;20481;-64
2023/09/22 01:21:54;;;;;;;4.07;0.90;;;15.80;99.90;;;;;;4988010;28;20515;-64
2023/09/22 01:24:21;;;;;;;11.23;1.87;;;15.70;99.90;;;;;;4989258;28;20456;-64
2023/09/22 01:26:48;;;;;;;1.93;1.17;;;15.60;99.90;;;;;;4987721;28;20905;-64
2023/09/22 01:29:15;;;;;;;15.43;2.10;;;15.60;99.90;;;;;;4990102;28;20490;-64
2023/09/22 01:31:42;;;;;;;5.77;1.17;;;15.60;99.90;;;;;;4991169;28;20485;-64
2023/09/22 01:34:11;;;;;;;3.30;1.20;;;15.50;99.90;;;;;;4988857;28;20482;-64
2023/09/22 01:36:38;;;;;;;4.40;1.40;;;;;;;;;;4990746;28;20490;-64
2023/09/22 01:39:09;;;;;;;1.57;0.80;;;15.50;99.90;;;;;;4981908;28;20486;-64
2023/09/22 01:41:36;;;;;;;5.23;1.03;;;15.50;99.90;;;;;;4985475;28;20490;-66
2023/09/22 01:44:03;;;;;;;2.30;1.10;;;15.40;99.90;;;;;;4988512;28;20973;-66
2023/09/22 01:46:30;;;;;;;5.53;1.20;;;15.50;99.90;;;;;;4985018;28;20470;-65
2023/09/22 01:48:57;;;;;;;6.13;1.23;;;15.50;99.90;;;;;;4990409;28;21000;-66
2023/09/22 01:51:24;;;;;;;2.00;1.07;;;15.50;99.90;;;;;;4983003;28;20488;-66
2023/09/22 01:53:51;;;;;;;5.40;1.37;;;15.50;99.90;;;;;;4994323;28;20541;-65
2023/09/22 01:56:20;;;;;;;1.70;1.13;;;15.50;99.90;;;;;;4986818;28;20547;-66
2023/09/22 01:58:46;;;;;;;22.87;2.10;;;15.50;99.90;;;;;;4990588;28;20479;-66
2023/09/22 02:01:13;;;;;;;2.83;1.20;;;15.40;99.90;;;;;;4988975;28;20481;-66
2023/09/22 02:03:40;;;;;;;21.67;2.27;;;15.40;99.90;;;;;;4984708;28;20553;-66
2023/09/22 02:06:07;;;;;;;2.97;1.37;;;15.40;99.90;;;;;;4996519;28;20480;-66
2023/09/22 02:08:34;;;;;;;2.17;0.90;;;15.40;99.90;;;;;;4987868;28;21024;-66
2023/09/22 02:11:00;;;;;;;11.80;2.20;;;15.40;99.90;;;;;;4989985;28;20479;-65
2023/09/22 02:13:29;;;;;;;8.03;1.37;;;15.40;99.90;;;;;;4994498;28;20473;-65
2023/09/22 02:15:55;;;;;;;1.70;1.00;;;15.40;99.90;;;;;;4996365;28;20563;-66
2023/09/22 02:18:23;;;;;;;7.77;1.40;;;15.50;99.90;;;;;;4995004;28;20785;-65
2023/09/22 02:20:50;;;;;;;1.93;1.00;;;15.50;99.90;;;;;;4999345;28;20480;-65
2023/09/22 02:23:17;;;;;;;1.97;0.80;;;15.40;99.90;;;;;;4989540;28;20530;-66
2023/09/22 02:25:44;;;;;;;6.30;1.20;;;15.40;99.90;;;;;;4991722;28;20482;-66
2023/09/22 02:28:10;;;;;;;8.57;1.70;;;15.30;99.90;;;;;;4997748;28;20489;-66
2023/09/22 02:30:39;;;;;;;7.07;1.20;;;15.40;99.90;;;;;;4985846;28;20486;-66
2023/09/22 02:33:07;;;;;;;1.60;0.70;;;15.40;99.90;;;;;;4994472;28;20572;-66
2023/09/22 02:35:34;;;;;;;2.10;1.10;;;15.40;99.90;;;;;;4975993;28;20470;-66
2023/09/22 02:38:01;;;;;;;27.17;3.20;;;;;;;;;;4995969;28;20481;-66
2023/09/22 02:40:28;;;;;;;1.60;0.80;;;15.30;99.90;;;;;;4996387;28;21197;-66
2023/09/22 02:42:55;;;;;;;6.33;1.30;;;15.30;99.90;;;;;;4987060;28;21305;-66
2023/09/22 02:45:22;;;;;;;11.50;1.87;;;15.10;99.90;;;;;;4992864;28;20480;-66
2023/09/22 02:47:50;;;;;;;5.20;1.70;;;15.10;99.90;;;;;;4994008;28;20481;-65
2023/09/22 02:50:18;;;;;;;2.73;1.30;;;15.10;99.90;;;;;;4993945;28;20996;-65
2023/09/22 02:52:45;;;;;;;4.90;1.60;;;15.10;99.90;;;;;;4997156;28;21230;-66
2023/09/22 02:55:13;;;;;;;1.60;0.80;;;15.20;99.90;;;;;;4993840;28;20546;-64
2023/09/22 02:57:42;;;;;;;4.67;1.40;;;15.20;99.90;;;;;;4995399;28;20483;-64
2023/09/22 03:00:14;;;;;;;7.23;1.20;;;15.20;99.90;;;;;;5006075;28;20486;-64
2023/09/22 03:02:41;;;;;;;2.50;1.40;;;15.20;99.90;;;;;;4995662;28;20590;-65
2023/09/22 03:05:10;;;;;;;1.70;0.90;;;15.20;99.90;;;;;;4992905;28;21058;-64
2023/09/22 03:07:37;;;;;;;6.70;1.37;;;15.10;99.90;;;;;;4998746;28;20502;-64
2023/09/22 03:10:06;;;;;;;2.83;1.20;;;15.10;99.90;;;;;;4996197;28;21135;-64
2023/09/22 03:12:34;;;;;;;12.87;2.00;;;;;;;;;;4989419;28;20480;-65
2023/09/22 03:15:01;;;;;;;2.10;1.00;;;15.20;99.90;;;;;;4988577;28;20986;-66
2023/09/22 03:17:28;;;;;;;1.80;0.80;;;;;;;;;;4989603;28;20490;-66
2023/09/22 03:19:57;;;;;;;6.27;1.30;;;15.30;99.90;;;;;;4987858;28;20855;-66
2023/09/22 03:22:26;;;;;;;1.60;0.80;;;15.20;99.90;;;;;;4991061;28;20880;-66
2023/09/22 03:24:53;;;;;;;1.70;0.93;;;15.20;99.90;;;;;;4988735;28;20500;-66
2023/09/22 03:27:19;;;;;;;3.27;1.20;;;15.10;99.90;;;;;;5007593;28;20474;-66
2023/09/22 03:29:46;;;;;;;1.60;0.80;;;15.10;99.90;;;;;;4982568;28;21007;-66
2023/09/22 03:32:14;;;;;;;4.70;1.20;;;15.10;99.90;;;;;;4993903;28;20474;-66
2023/09/22 03:34:41;;;;;;;4.47;1.10;;;15.10;99.90;;;;;;4985864;28;20478;-67
2023/09/22 03:37:09;;;;;;;2.10;1.27;;;15.10;99.90;;;;;;4993072;28;20989;-66
2023/09/22 03:39:38;;;;;;;8.70;1.90;;;15.00;99.90;;;;;;4991764;28;20484;-66
2023/09/22 03:42:06;;;;;;;5.60;1.00;;;;;;;;;;4990075;28;20530;-65
2023/09/22 03:44:34;;;;;;;2.07;1.20;;;;;;;;;;4996671;28;21161;-66
2023/09/22 03:47:01;;;;;;;15.37;2.23;;;15.10;99.90;;;;;;4997666;28;20549;-66
2023/09/22 03:49:28;;;;;;;4.27;1.00;;;15.10;99.90;;;;;;4984786;28;20517;-67
2023/09/22 03:51:55;;;;;;;1.70;0.80;;;15.10;99.90;;;;;;4985102;28;20503;-66
2023/09/22 03:54:21;;;;;;;3.53;1.00;;;15.20;99.90;;;;;;4993306;28;20520;-66
2023/09/22 03:56:50;;;;;;;6.33;1.47;;;;;;;;;;4997809;28;20991;-66
2023/09/22 03:59:17;;;;;;;1.63;0.80;;;15.10;99.90;;;;;;4999282;28;20480;-66
2023/09/22 04:01:44;;;;;;;1.77;1.00;;;15.10;99.90;;;;;;4994422;28;20505;-66
2023/09/22 04:04:11;;;;;;;1.93;0.80;;;15.10;99.90;;;;;;4992431;28;20483;-67
2023/09/22 04:06:38;;;;;;;1.80;0.90;;;15.10;99.90;;;;;;4990608;28;20823;-66
2023/09/22 04:09:07;;;;;;;2.00;1.10;;;15.10;99.90;;;;;;4988449;28;20482;-65
2023/09/22 04:11:34;;;;;;;2.00;0.83;;;15.10;99.90;;;;;;4989972;28;20497;-66
2023/09/22 04:14:02;;;;;;;6.63;1.00;;;15.10;99.90;;;;;;4989879;28;20576;-66
2023/09/22 04:16:29;;;;;;;4.70;1.40;;;15.00;99.90;;;;;;4993533;28;20486;-66
2023/09/22 04:18:56;;;;;;;2.60;0.97;;;15.10;99.90;;;;;;4998503;28;20481;-66
2023/09/22 04:21:23;;;;;;;22.47;2.70;;;15.10;99.90;;;;;;4994507;28;21049;-67
2023/09/22 04:23:57;;;;;;;10.73;1.20;;;15.20;99.90;;;;;;4995399;28;20574;-66
2023/09/22 04:26:27;;;;;;;3.00;0.70;;;15.20;99.90;;;;;;4988632;28;20535;-66
2023/09/22 04:28:55;;;;;;;1.77;0.80;;;;;;;;;;4988642;28;20497;-67
2023/09/22 04:31:24;;;;;;;4.80;1.50;;;15.30;99.90;;;;;;4990930;28;20514;-66
2023/09/22 04:33:51;;;;;;;11.30;1.20;;;15.30;99.90;;;;;;4992132;28;20485;-64
2023/09/22 04:36:19;;;;;;;1.67;0.90;;;15.30;99.90;;;;;;4993924;28;20489;-64
2023/09/22 04:38:45;;;;;;;1.70;0.90;;;15.30;99.90;;;;;;4992771;28;20486;-64
2023/09/22 04:41:12;;;;;;;3.03;0.90;;;15.40;99.90;;;;;;4994583;28;20489;-64
2023/09/22 04:43:39;;;;;;;5.30;0.73;;;15.40;99.90;;;;;;4996652;28;20482;-65
2023/09/22 04:46:06;;;;;;;3.70;0.90;;;15.40;99.90;;;;;;4991250;28;21166;-66
2023/09/22 04:48:34;;;;;;;2.10;1.20;;;15.50;99.90;;;;;;4996196;28;20493;-66
2023/09/22 04:51:01;;;;;;;7.83;1.23;;;15.50;99.90;;;;;;4993699;28;20485;-67
2023/09/22 04:53:29;;;;;;;4.90;1.10;;;15.30;99.90;;;;;;4990427;28;21027;-67
2023/09/22 04:56:03;;;;;;;8.53;1.23;;;15.30;99.90;;;;;;4993424;28;20485;-66
2023/09/22 04:58:30;;;;;;;1.80;0.83;;;15.40;99.90;;;;;;4982309;28;20485;-67
2023/09/22 05:00:58;;;;;;;2.40;1.00;;;15.30;99.90;;;;;;4995015;28;20480;-66
2023/09/22 05:03:25;;;;;;;15.73;1.90;;;15.20;99.90;;;;;;4992846;28;20635;-67
2023/09/22 05:05:54;;;;;;;6.33;1.00;;;15.20;99.90;;;;;;4999825;28;20506;-67
2023/09/22 05:08:22;;;;;;;1.80;1.00;;;15.30;99.90;;;;;;4997143;28;20910;-66
2023/09/22 05:10:49;;;;;;;1.80;0.90;;;15.20;99.90;;;;;;4993799;28;20477;-65
2023/09/22 05:13:16;;;;;;;2.83;1.00;;;15.20;99.90;;;;;;4993957;28;20492;-67
2023/09/22 05:15:43;;;;;;;2.00;1.13;;;15.20;99.90;;;;;;4989406;28;20482;-66
2023/09/22 05:18:13;;;;;;;2.00;0.80;;;15.20;99.90;;;;;;4992400;28;20480;-66
2023/09/22 05:20:40;;;;;;;1.90;0.90;;;15.20;99.90;;;;;;4992243;28;21024;-66
2023/09/22 05:23:09;;;;;;;16.57;2.23;;;;;;;;;;4992581;28;20510;-66
2023/09/22 05:25:40;;;;;;;2.37;0.80;;;15.20;99.90;;;;;;4987089;28;20486;-66
2023/09/22 05:28:08;;;;;;;6.47;1.30;;;15.20;99.90;;;;;;4986730;28;20499;-66
2023/09/22 05:30:36;;;;;;;18.43;2.00;;;15.10;99.90;;;;;;4988650;28;20482;-67
2023/09/22 05:33:06;;;;;;;2.27;0.73;;;15.20;99.90;;;;;;4991194;28;20474;-66
2023/09/22 05:35:34;;;;;;;2.27;1.00;;;15.20;99.90;;;;;;4991106;28;20564;-66
2023/09/22 05:38:02;;;;;;;7.43;1.23;;;;;;;;;;4993707;28;20473;-66
2023/09/22 05:40:33;;;;;;;1.80;1.00;;;15.20;99.90;;;;;;4994700;28;20473;-66
2023/09/22 05:43:00;;;;;;;6.43;1.10;;;15.20;99.90;;;;;;4987026;28;20477;-66
2023/09/22 05:45:27;;;;;;;1.90;0.70;;;15.20;99.90;;;;;;4990858;28;20839;-66
2023/09/22 05:47:54;;;;;;;3.20;1.20;;;15.10;99.90;;;;;;4990985;28;20481;-67
2023/09/22 05:50:23;;;;;;;2.00;1.10;;;15.10;99.90;;;;;;4993860;28;20470;-66
2023/09/22 05:52:50;;;;;;;3.83;0.90;;;15.20;99.90;;;;;;4998177;28;20825;-66
2023/09/22 05:55:17;;;;;;;3.70;1.10;;;15.20;99.90;;;;;;4996225;28;20526;-66
2023/09/22 05:57:45;;;;;;;13.23;1.90;;;15.20;99.90;;;;;;4995737;28;20496;-66
2023/09/22 06:00:16;;;;;;;2.97;0.97;;;15.20;99.90;;;;;;4992115;28;20914;-66
2023/09/22 06:02:47;;;;;;;2.83;0.87;;;15.30;99.90;;;;;;4993876;28;20964;-65
2023/09/22 06:05:14;;;;;;;8.53;1.50;;;15.30;99.90;;;;;;4995368;28;20553;-66
2023/09/22 06:07:41;;;;;;;15.90;2.17;;;15.30;99.90;;;;;;4995077;28;20484;-66
2023/09/22 06:10:09;;;;;;;4.07;1.47;;;15.30;99.90;;;;;;4994959;28;20505;-66
2023/09/22 06:12:36;;;;;;;1.93;1.03;;;;;;;;;;4994596;28;20482;-66
2023/09/22 06:15:06;;;;;;;25.60;2.67;;;15.30;99.90;;;;;;4991879;28;20596;-66
2023/09/22 06:17:33;;;;;;;2.27;1.07;;;15.30;99.90;;;;;;4990408;28;20489;-65
2023/09/22 06:20:07;;;;;;;30.17;3.90;;;15.50;99.90;;;;;;4991099;28;20487;-65
2023/09/22 06:22:35;;;;;;;1.80;1.10;;;15.40;99.90;;;;;;4999874;28;20481;-65
2023/09/22 06:25:02;;;;;;;30.97;2.63;;;15.50;99.90;;;;;;4988187;28;20493;-66
2023/09/22 06:27:29;;;;;;;2.27;0.80;;;15.60;99.90;;;;;;4990637;28;20485;-66
2023/09/22 06:29:56;;;;;;;5.27;1.47;;;15.60;99.90;;;;;;4996190;28;20485;-65
2023/09/22 06:32:24;;;;;;;22.17;2.50;;;15.60;99.90;;;;;;4994165;28;21165;-66
2023/09/22 06:34:52;;;;;;;2.00;1.30;;;15.60;99.90;;;;;;4991679;28;20860;-66
2023/09/22 06:37:19;;;;;;;1.70;0.80;;;15.60;99.90;;;;;;4991690;28;20845;-67
2023/09/22 06:39:46;;;;;;;9.33;1.30;;;15.60;99.90;;;;;;4994945;28;20485;-66
2023/09/22 06:42:13;;;;;;;10.20;1.97;;;15.60;99.90;;;;;;4993229;28;20481;-66
2023/09/22 06:44:40;;;;;;;2.20;1.20;;;15.70;99.90;;;;;;4989095;28;20492;-66
2023/09/22 06:47:07;;;;;;;4.37;2.00;;;15.70;99.90;;;;;;4980745;28;20862;-66
2023/09/22 06:49:35;;;;;;;1.90;1.00;;;15.70;99.90;;;;;;4979667;28;20492;-66
2023/09/22 06:52:02;;;;;;;3.77;1.90;;;15.70;99.90;;;;;;4991468;28;20490;-66
2023/09/22 06:54:29;;;;;;;5.60;1.63;;;15.80;99.90;;;;;;4983060;28;20489;-66
2023/09/22 06:56:56;;;;;;;3.23;1.07;;;15.80;99.90;;;;;;4990523;28;20694;-66
2023/09/22 06:59:23;;;;;;;7.93;1.77;;;15.90;99.90;;;;;;4992378;28;20533;-66
2023/09/22 07:01:50;;;;;;;7.20;1.73;;;15.90;99.90;;;;;;4986351;28;20838;-66
2023/09/22 07:04:17;;;;;;;7.37;1.70;;;15.90;99.90;;;;;;4986323;28;20474;-67
2023/09/22 07:06:45;;;;;;;5.23;1.43;;;15.90;99.90;;;;;;4986320;28;20532;-66
2023/09/22 07:09:12;;;;;;;7.03;1.43;;;16.00;99.90;;;;;;4992884;28;20837;-66
2023/09/22 07:11:40;;;;;;;2.40;1.37;;;15.90;99.90;;;;;;4995094;28;20809;-67
2023/09/22 07:14:08;;;;;;;9.63;1.30;;;16.00;99.90;;;;;;4998182;28;20585;-65
2023/09/22 07:16:35;;;;;;;9.60;2.70;;;16.00;99.90;;;;;;4994203;28;20598;-65
2023/09/22 07:19:02;;;;;;;4.03;1.63;;;16.00;99.90;;;;;;4985378;28;20564;-65
2023/09/22 07:21:29;;;;;;;8.37;1.60;;;16.00;99.90;;;;;;4994658;28;20767;-65
2023/09/22 07:23:58;;;;;;;2.23;1.10;;;16.00;99.90;;;;;;4991002;28;20968;-66
2023/09/22 07:26:24;;;;;;;1.70;1.03;;;16.10;99.90;;;;;;4991668;28;20479;-66
2023/09/22 07:28:51;;;;;;;5.50;1.27;;;16.20;99.90;;;;;;4985967;28;20572;-67
2023/09/22 07:31:20;;;;;;;1.90;0.90;;;16.30;99.90;;;;;;4988458;28;21051;-67
2023/09/22 07:33:47;;;;;;;7.93;1.53;;;;;;;;;;4998507;28;21236;-66
2023/09/22 07:36:15;;;;;;;3.70;1.30;;;16.00;99.90;;;;;;4998260;28;20518;-65
2023/09/22 07:38:43;;;;;;;20.67;3.00;;;16.10;99.90;;;;;;4993093;28;21068;-65
2023/09/22 07:41:11;;;;;;;7.73;1.50;;;16.10;99.90;;;;;;4993019;28;20473;-65
2023/09/22 07:43:38;;;;;;;5.40;1.40;;;16.10;99.90;;;;;;4989397;28;20484;-65
2023/09/22 07:46:06;;;;;;;4.80;1.50;;;16.10;99.90;;;;;;4988477;28;20496;-65
2023/09/22 07:48:34;;;;;;;4.07;1.30;;;16.10;99.90;;;;;;4991713;28;20504;-65
2023/09/22 07:51:01;;;;;;;5.73;2.33;;;16.10;99.90;;;;;;4984803;28;21031;-65
2023/09/22 07:53:28;;;;;;;4.17;1.93;;;16.10;99.90;;;;;;4992334;28;20485;-65
2023/09/22 07:55:58;;;;;;;2.87;1.50;;;16.00;99.90;;;;;;4987626;28;20477;-65
2023/09/22 07:58:27;;;;;;;3.37;1.27;;;16.10;99.90;;;;;;4988380;28;20644;-65
2023/09/22 08:00:55;;;;;;;2.03;1.50;;;16.10;99.90;;;;;;4990914;28;20474;-64
2023/09/22 08:03:22;;;;;;;2.43;1.83;;;16.20;99.90;;;;;;4990915;28;20465;-64
2023/09/22 08:05:49;;;;;;;5.17;2.43;;;16.20;99.90;;;;;;4992363;28;21050;-66
2023/09/22 08:08:17;;;;;;;15.63;4.10;;;16.20;99.90;;;;;;4983019;28;20560;-65
2023/09/22 08:10:43;;;;;;;6.13;2.90;;;16.20;99.90;;;;;;4989103;28;20828;-65
2023/09/22 08:13:13;;;;;;;12.73;3.10;;;16.30;99.90;;;;;;4983833;28;20858;-64
2023/09/22 08:15:41;;;;;;;6.83;2.17;;;16.30;99.90;;;;;;4981933;28;20482;-64
2023/09/22 08:18:10;;;;;;;5.90;2.53;;;16.40;99.90;;;;;;4987560;28;21144;-65
2023/09/22 08:20:37;;;;;;;2.87;1.70;;;16.40;99.90;;;;;;4984314;28;20496;-64
2023/09/22 08:23:04;;;;;;;2.20;1.80;;;16.30;99.90;;;;;;4989409;28;20502;-65
2023/09/22 08:25:31;;;;;;;3.70;1.63;;;16.40;99.90;;;;;;4990619;28;20485;-64
2023/09/22 08:27:58;;;;;;;2.30;1.50;;;16.30;99.90;;;;;;4986682;28;20916;-64
2023/09/22 08:30:25;;;;;;;2.30;2.00;;;16.30;99.90;;;;;;4985320;28;20484;-65
2023/09/22 08:32:54;;;;;;;2.80;1.50;;;16.40;99.90;;;;;;4991849;28;20478;-65
2023/09/22 08:35:21;;;;;;;4.00;1.60;;;16.50;99.90;;;;;;4997405;28;20509;-66
2023/09/22 08:37:49;;;;;;;4.23;2.07;;;;;;;;;;4991205;28;20469;-65
2023/09/22 08:40:17;;;;;;;10.80;2.40;;;16.50;99.90;;;;;;4981262;28;20959;-64
2023/09/22 08:42:45;;;;;;;14.07;2.30;;;16.60;99.90;;;;;;4991647;28;20921;-65
2023/09/22 08:45:13;;;;;;;7.80;2.37;;;16.70;99.90;;;;;;4978810;28;20478;-64
2023/09/22 08:47:41;;;;;;;14.23;2.70;;;16.70;99.90;;;;;;4985681;28;20851;-65
2023/09/22 08:50:12;;;;;;;6.30;1.70;;;16.80;99.90;;;;;;4986936;28;20918;-65
2023/09/22 08:52:45;;;;;;;3.40;1.87;;;17.00;99.90;;;;;;4979983;28;20506;-65
2023/09/22 08:55:14;;;;;;;3.40;1.30;;;17.10;99.90;;;;;;4986041;28;20490;-67
2023/09/22 08:57:44;;;;;;;5.50;1.57;;;17.10;99.90;;;;;;4981721;28;20489;-63
2023/09/22 09:00:18;;;;;;;4.93;1.60;;;17.40;99.90;;;;;;4989210;28;20503;-65
2023/09/22 09:02:45;;;;;;;5.30;1.37;;;17.50;99.90;;;;;;4990586;28;20477;-64
2023/09/22 09:05:24;;;;;;;2.73;1.90;;;17.40;99.90;;;;;;4992691;28;20992;-63
2023/09/22 09:07:51;;;;;;;3.40;1.90;;;17.70;99.90;;;;;;4993159;28;20831;-63
2023/09/22 09:10:29;;;;;;;11.13;2.30;;;17.70;99.50;;;;;;4995844;28;21024;-64
2023/09/22 09:12:56;;;;;;;3.27;1.90;;;17.40;98.80;;;;;;4985104;28;20468;-65
2023/09/22 09:15:27;;;;;;;2.00;1.40;;;17.50;99.20;;;;;;4992518;28;20860;-64
2023/09/22 09:18:04;;;;;;;8.07;1.77;;;17.70;99.90;;;;;;4982516;28;20590;-64
2023/09/22 09:20:34;;;;;;;6.80;1.87;;;17.90;98.70;;;;;;4968614;28;20980;-64
2023/09/22 09:23:12;;;;;;;2.43;0.97;;;17.90;98.40;;;;;;4989733;28;20477;-64
2023/09/22 09:25:44;;;;;;;6.43;1.90;;;17.60;98.60;;;;;;4993340;28;20490;-65
2023/09/22 09:28:12;;;;;;;8.40;1.10;;;17.80;98.90;;;;;;4991345;28;20481;-65
2023/09/22 09:30:39;;;;;;;2.80;1.30;;;17.80;98.50;;;;;;4985863;28;20480;-64
2023/09/22 09:33:09;;;;;;;3.30;1.17;;;18.10;99.10;;;;;;4989120;28;20820;-65
2023/09/22 09:35:38;;;;;;;2.60;1.47;;;18.30;99.70;;;;;;4987564;28;20473;-65
2023/09/22 09:38:05;;;;;;;12.13;1.87;;;18.60;98.60;;;;;;4990573;28;20480;-64
2023/09/22 09:40:36;;;;;;;2.40;1.00;;;18.90;99.40;;;;;;4978745;28;20497;-65
2023/09/22 09:43:06;;;;;;;1.90;0.90;;;19.30;98.50;;;;;;4990651;28;20600;-64
2023/09/22 09:45:35;;;;;;;2.43;1.00;;;19.30;96.90;;;;;;4991122;28;20485;-64
2023/09/22 09:48:09;;;;;;;8.33;1.40;;;19.30;96.70;;;;;;4987473;28;20946;-64
2023/09/22 09:50:41;;;;;;;1.93;0.90;;;19.20;96.20;;;;;;4980381;28;20751;-64
2023/09/22 09:53:21;;;;;;;8.73;1.80;;;19.20;96.20;;;;;;4986543;28;20969;-65
2023/09/22 09:55:52;;;;;;;1.97;0.80;;;19.00;95.80;;;;;;4978537;28;20484;-64
2023/09/22 09:58:20;;;;;;;5.20;1.50;;;19.00;96.60;;;;;;4988308;28;20485;-65
2023/09/22 10:00:47;;;;;;;6.50;1.50;;;19.00;96.10;;;;;;4989293;28;20497;-65
2023/09/22 10:03:15;;;;;;;1.80;0.90;;;19.20;96.10;;;;;;4990973;28;20485;-64
2023/09/22 10:05:43;;;;;;;10.17;1.87;;;19.20;96.40;;;;;;4990487;28;20481;-66
2023/09/22 10:08:13;;;;;;;1.93;1.20;;;19.10;95.60;;;;;;4990901;28;20474;-66
2023/09/22 10:10:41;;;;;;;3.50;1.10;;;19.00;95.80;;;;;;4994078;28;20536;-66
2023/09/22 10:13:08;;;;;;;3.50;0.90;;;19.00;95.30;;;;;;4986236;28;20452;-66
2023/09/22 10:15:55;;;;;;;5.77;1.50;;;19.00;95.50;;;;;;5006141;28;20909;-66
2023/09/22 10:18:23;;;;;;;2.00;0.83;;;19.20;97.60;;;;;;4990374;28;20477;-66
2023/09/22 10:20:51;;;;;;;5.07;1.33;;;19.70;96.90;;;;;;4990127;28;20563;-66
2023/09/22 10:23:23;;;;;;;2.70;0.90;;;19.80;95.80;;;;;;4990251;28;20481;-66
2023/09/22 10:26:16;;;;;;;2.87;1.10;;;19.90;94.60;;;;;;4989828;28;20513;-66
2023/09/22 10:28:43;;;;;;;1.90;0.70;;;19.90;94.40;;;;;;4993233;28;20502;-66
2023/09/22 10:31:10;;;;;;;20.40;1.93;;;19.90;94.50;;;;;;4991481;28;20991;-65
2023/09/22 10:33:37;;;;;;;6.53;1.47;;;20.20;95.20;;;;;;4993214;28;20484;-66
2023/09/22 10:36:07;;;;;;;9.67;1.93;;;20.10;95.10;;;;;;4991196;28;20485;-66
2023/09/22 10:38:53;;;;;;;3.70;0.80;;;20.00;93.40;;;;;;4992289;28;20488;-67
2023/09/22 10:41:19;;;;;;;6.57;1.20;;;20.10;95.00;;;;;;4984490;28;20505;-67
2023/09/22 10:43:57;;;;;;;2.60;1.23;;;;;;;;;;5000468;28;20476;-66
2023/09/22 10:46:24;;;;;;;1.60;0.70;;;19.80;93.50;;;;;;4992719;28;21117;-67
2023/09/22 10:48:51;;;;;;;6.50;1.53;;;19.90;95.10;;;;;;4992680;28;20491;-67
2023/09/22 10:51:22;;;;;;;2.30;1.00;;;19.90;95.50;;;;;;4991236;28;20452;-66
2023/09/22 10:53:59;;;;;;;10.30;1.93;;;20.00;94.30;;;;;;4993864;28;20478;-66
2023/09/22 10:56:26;;;;;;;1.70;0.93;;;19.90;93.50;;;;;;4994202;28;20521;-67
2023/09/22 10:58:54;;;;;;;3.20;1.00;;;20.00;94.10;;;;;;4993738;28;20933;-67
2023/09/22 11:01:22;;;;;;;14.60;1.70;;;;;;;;;;4985819;28;20909;-66
2023/09/22 11:03:53;;;;;;;20.40;1.83;;;;;;;;;;5008213;28;21359;-67
2023/09/22 11:06:21;;;;;;;29.13;2.40;;;20.50;94.60;;;;;;4994908;28;20464;-66
2023/09/22 11:08:50;;;;;;;5.83;1.50;;;20.80;94.50;;;;;;4997072;28;20491;-67
2023/09/22 11:11:18;;;;;;;5.47;1.63;;;21.10;94.50;;;;;;4997694;28;20608;-67
2023/09/22 11:13:52;;;;;;;9.10;1.57;;;21.00;92.20;;;;;;4992470;28;20717;-65
2023/09/22 11:16:20;;;;;;;2.40;1.20;;;20.60;93.00;;;;;;4995963;28;20551;-65
2023/09/22 11:18:47;;;;;;;2.30;1.27;;;20.60;93.20;;;;;;4993686;28;20445;-65
2023/09/22 11:21:13;;;;;;;19.73;2.23;;;20.50;94.90;;;;;;4993404;28;20492;-65
2023/09/22 11:23:42;;;;;;;6.80;1.30;;;20.30;91.70;;;;;;5000206;28;20481;-65
2023/09/22 11:26:10;;;;;;;2.27;1.00;;;20.40;92.90;;;;;;4994469;28;20806;-65
2023/09/22 11:28:40;;;;;;;7.87;1.53;;;20.40;92.70;;;;;;4988852;28;20974;-65
2023/09/22 11:31:12;;;;;;;4.13;1.00;;;20.20;92.70;;;;;;4992049;28;20456;-67
2023/09/22 11:33:39;;;;;;;8.83;1.10;;;20.00;93.00;;;;;;4980892;28;20472;-66
2023/09/22 11:36:06;;;;;;;2.13;0.70;;;19.90;93.10;;;;;;4992530;28;20481;-65
2023/09/22 11:38:35;;;;;;;1.60;0.80;;;19.90;93.30;;;;;;4995373;28;20510;-65
2023/09/22 11:41:11;;;;;;;2.90;1.20;;;19.70;93.70;;;;;;4993965;28;20464;-65
2023/09/22 11:43:39;;;;;;;10.30;1.43;;;19.60;93.70;;;;;;4992292;28;20469;-64
2023/09/22 11:46:07;;;;;;;2.37;1.00;;;19.50;93.00;;;;;;4992651;28;21031;-65
2023/09/22 11:48:59;;;;;;;2.93;0.90;;;19.50;92.30;;;;;;4989456;28;20480;-64
2023/09/22 11:51:45;;;;;;;2.73;1.00;;;19.70;93.80;;;;;;5000689;28;20536;-64
2023/09/22 11:54:13;;;;;;;2.77;0.90;;;19.80;93.20;;;;;;4993169;28;20540;-64
2023/09/22 11:56:41;;;;;;;6.47;1.50;;;19.70;93.10;;;;;;4992854;28;21036;-65
2023/09/22 11:59:09;;;;;;;6.13;1.00;;;19.60;92.30;;;;;;4994979;28;21063;-65
2023/09/22 12:01:36;;;;;;;2.30;1.00;;;19.60;92.80;;;;;;4994177;28;20457;-65
2023/09/22 12:04:04;;;;;;;2.33;0.93;;;19.70;93.50;;;;;;4993855;28;20481;-65
2023/09/22 12:06:31;;;;;;;1.97;0.70;;;19.80;92.80;;;;;;4992210;28;20488;-65
2023/09/22 12:08:58;;;;;;;1.77;0.87;;;19.90;93.60;;;;;;4990391;28;20600;-66
2023/09/22 12:11:25;;;;;;;4.03;0.90;;;20.20;93.80;;;;;;4989919;28;20449;-65
2023/09/22 12:13:53;;;;;;;3.20;1.13;;;20.30;92.00;;;;;;4991374;28;20456;-65
2023/09/22 12:16:20;;;;;;;20.23;2.40;;;20.50;91.50;;;;;;4994210;28;21136;-64
2023/09/22 12:18:47;;;;;;;2.40;0.97;;;20.50;91.50;;;;;;4996374;28;20476;-66
2023/09/22 12:21:14;;;;;;;3.30;1.00;;;20.60;91.10;;;;;;4993392;28;20477;-66
2023/09/22 12:23:41;;;;;;;13.03;1.33;;;20.70;90.40;;;;;;4989699;28;20509;-70
2023/09/22 12:26:08;;;;;;;1.50;0.60;;;20.70;90.30;;;;;;4995836;28;20488;-69
2023/09/22 12:28:35;;;;;;;2.77;1.20;;;20.60;90.40;;;;;;4992830;28;20785;-67
2023/09/22 12:31:03;;;;;;;6.83;1.30;;;20.50;90.20;;;;;;4993246;28;20673;-68
2023/09/22 12:33:30;;;;;;;2.47;1.13;;;20.70;91.10;;;;;;4995336;28;20474;-66
2023/09/22 12:35:57;;;;;;;3.00;1.10;;;20.60;90.40;;;;;;4993663;28;20856;-66
2023/09/22 12:38:24;;;;;;;3.83;1.03;;;20.50;90.90;;;;;;4991497;28;20485;-67
2023/09/22 12:40:51;;;;;;;1.70;0.60;;;20.70;90.40;;;;;;4991844;28;20493;-67
2023/09/22 12:43:18;;;;;;;5.20;1.20;;;21.00;88.30;;;;;;4990177;28;21057;-67
2023/09/22 12:45:45;;;;;;;10.90;1.70;;;20.80;87.70;;;;;;4993995;28;21010;-65
2023/09/22 12:48:13;;;;;;;4.57;1.33;;;20.70;87.20;;;;;;4996595;28;20452;-66
2023/09/22 12:50:40;;;;;;;24.57;3.27;;;20.50;88.10;;;;;;4994566;28;20472;-66
2023/09/22 12:53:07;;;;;;;7.57;1.30;;;;;;;;;;4990806;28;20452;-68
2023/09/22 12:55:39;;;;;;;5.77;1.47;;;19.80;88.10;;;;;;4996250;28;20495;-65